sensor_id;sensor_type;location;lat;lon;timestamp;pressure;altitude;pressure_sealevel;temperature;humidity
19128;BME280;9696;53.686;10.094;2023-03-16T00:01:03;101789.72;;;0.83;100.00
19128;BME280;9696;53.686;10.094;2023-03-16T00:03:35;101790.41;;;0.90;100.00
19128;BME280;9696;53.686;10.094;2023-03-16T00:06:08;101785.16;;;0.93;100.00
19128;BME280;9696;53.686;10.094;2023-03-16T00:08:38;101799.69;;;0.95;100.00
19128;BME280;9696;53.686;10.094;2023-03-16T00:11:07;101795.38;;;0.96;100.00
19128;BME280;9696;53.686;10.094;2023-03-16T00:13:36;101795.50;;;0.93;100.00
19128;BME280;9696;53.686;10.094;2023-03-16T00:16:05;101801.72;;;0.86;100.00
19128;BME280;9696;53.686;10.094;2023-03-16T00:18:34;101799.81;;;0.92;100.00
19128;BME280;9696;53.686;10.094;2023-03-16T00:21:07;101796.59;;;0.84;100.00
19128;BME280;9696;53.686;10.094;2023-03-16T00:23:37;101804.34;;;0.84;100.00
19128;BME280;9696;53.686;10.094;2023-03-16T00:26:07;101802.03;;;0.75;100.00
19128;BME280;9696;53.686;10.094;2023-03-16T00:28:37;101804.78;;;0.69;100.00
19128;BME280;9696;53.686;10.094;2023-03-16T00:31:08;101804.19;;;0.60;100.00
19128;BME280;9696;53.686;10.094;2023-03-16T00:33:40;101809.63;;;0.51;100.00
19128;BME280;9696;53.686;10.094;2023-03-16T00:36:12;101812.25;;;0.49;100.00
19128;BME280;9696;53.686;10.094;2023-03-16T00:38:42;101800.34;;;0.43;100.00
19128;BME280;9696;53.686;10.094;2023-03-16T00:41:13;101805.56;;;0.42;100.00
19128;BME280;9696;53.686;10.094;2023-03-16T00:43:43;101806.13;;;0.52;100.00
19128;BME280;9696;53.686;10.094;2023-03-16T00:46:14;101806.53;;;0.69;100.00
19128;BME280;9696;53.686;10.094;2023-03-16T00:48:45;101806.66;;;0.64;100.00
19128;BME280;9696;53.686;10.094;2023-03-16T00:51:17;101803.09;;;0.68;100.00
19128;BME280;9696;53.686;10.094;2023-03-16T00:53:47;101807.56;;;0.63;100.00
19128;BME280;9696;53.686;10.094;2023-03-16T00:56:16;101807.81;;;0.23;100.00
19128;BME280;9696;53.686;10.094;2023-03-16T00:58:45;101811.69;;;0.06;100.00
19128;BME280;9696;53.686;10.094;2023-03-16T01:01:16;101808.31;;;0.04;100.00
19128;BME280;9696;53.686;10.094;2023-03-16T01:03:46;101811.59;;;0.09;100.00
19128;BME280;9696;53.686;10.094;2023-03-16T01:06:17;101805.28;;;0.20;100.00
19128;BME280;9696;53.686;10.094;2023-03-16T01:08:48;101808.59;;;0.25;100.00
19128;BME280;9696;53.686;10.094;2023-03-16T01:11:18;101814.69;;;0.23;100.00
19128;BME280;9696;53.686;10.094;2023-03-16T01:13:49;101812.19;;;0.20;100.00
19128;BME280;9696;53.686;10.094;2023-03-16T01:16:21;101811.34;;;0.19;100.00
19128;BME280;9696;53.686;10.094;2023-03-16T01:18:51;101816.72;;;0.10;100.00
19128;BME280;9696;53.686;10.094;2023-03-16T01:21:21;101813.28;;;0.11;100.00
19128;BME280;9696;53.686;10.094;2023-03-16T01:23:51;101804.84;;;0.05;100.00
19128;BME280;9696;53.686;10.094;2023-03-16T01:26:20;101802.34;;;0.02;100.00
19128;BME280;9696;53.686;10.094;2023-03-16T01:28:52;101803.41;;;-0.07;100.00
19128;BME280;9696;53.686;10.094;2023-03-16T01:31:22;101806.91;;;-0.08;100.00
19128;BME280;9696;53.686;10.094;2023-03-16T01:33:51;101797.56;;;-0.12;100.00
19128;BME280;9696;53.686;10.094;2023-03-16T01:36:25;101799.31;;;-0.14;100.00
19128;BME280;9696;53.686;10.094;2023-03-16T01:39:01;101794.31;;;-0.20;100.00
19128;BME280;9696;53.686;10.094;2023-03-16T01:41:39;101790.97;;;-0.24;100.00
19128;BME280;9696;53.686;10.094;2023-03-16T01:44:12;101793.41;;;-0.19;100.00
19128;BME280;9696;53.686;10.094;2023-03-16T01:46:43;101796.00;;;-0.19;100.00
19128;BME280;9696;53.686;10.094;2023-03-16T01:49:15;101790.88;;;-0.21;100.00
19128;BME280;9696;53.686;10.094;2023-03-16T01:51:51;101795.94;;;-0.16;100.00
19128;BME280;9696;53.686;10.094;2023-03-16T01:54:25;101795.09;;;-0.18;100.00
19128;BME280;9696;53.686;10.094;2023-03-16T01:57:00;101792.63;;;-0.23;100.00
19128;BME280;9696;53.686;10.094;2023-03-16T01:59:33;101793.47;;;-0.21;100.00
19128;BME280;9696;53.686;10.094;2023-03-16T02:02:04;101791.78;;;-0.23;100.00
19128;BME280;9696;53.686;10.094;2023-03-16T02:04:47;101787.56;;;-0.26;100.00
19128;BME280;9696;53.686;10.094;2023-03-16T02:07:23;101791.75;;;-0.20;100.00
19128;BME280;9696;53.686;10.094;2023-03-16T02:09:54;101797.97;;;-0.29;100.00
19128;BME280;9696;53.686;10.094;2023-03-16T02:12:25;101788.53;;;-0.30;100.00
19128;BME280;9696;53.686;10.094;2023-03-16T02:14:56;101797.31;;;-0.38;100.00
19128;BME280;9696;53.686;10.094;2023-03-16T02:17:27;101787.06;;;-0.40;100.00
19128;BME280;9696;53.686;10.094;2023-03-16T02:20:15;101789.50;;;-0.35;100.00
19128;BME280;9696;53.686;10.094;2023-03-16T02:22:49;101784.53;;;-0.41;100.00
19128;BME280;9696;53.686;10.094;2023-03-16T02:25:23;101786.91;;;-0.34;100.00
19128;BME280;9696;53.686;10.094;2023-03-16T02:27:59;101782.69;;;-0.36;100.00
19128;BME280;9696;53.686;10.094;2023-03-16T02:30:34;101776.56;;;-0.32;100.00
19128;BME280;9696;53.686;10.094;2023-03-16T02:33:05;101774.22;;;-0.41;100.00
19128;BME280;9696;53.686;10.094;2023-03-16T02:35:34;101771.75;;;-0.46;100.00
19128;BME280;9696;53.686;10.094;2023-03-16T02:38:04;101772.56;;;-0.44;100.00
19128;BME280;9696;53.686;10.094;2023-03-16T02:40:39;101788.06;;;-0.45;100.00
19128;BME280;9696;53.686;10.094;2023-03-16T02:43:14;101782.22;;;-0.52;100.00
19128;BME280;9696;53.686;10.094;2023-03-16T02:46:15;101773.56;;;-0.50;100.00
19128;BME280;9696;53.686;10.094;2023-03-16T02:48:48;101783.94;;;-0.53;100.00
19128;BME280;9696;53.686;10.094;2023-03-16T02:51:19;101784.72;;;-0.51;100.00
19128;BME280;9696;53.686;10.094;2023-03-16T02:53:49;101782.81;;;-0.42;100.00
19128;BME280;9696;53.686;10.094;2023-03-16T02:56:18;101778.53;;;-0.42;100.00
19128;BME280;9696;53.686;10.094;2023-03-16T02:58:47;101775.09;;;-0.42;100.00
19128;BME280;9696;53.686;10.094;2023-03-16T03:01:20;101773.56;;;-0.51;100.00
19128;BME280;9696;53.686;10.094;2023-03-16T03:03:49;101770.22;;;-0.53;100.00
19128;BME280;9696;53.686;10.094;2023-03-16T03:06:18;101764.31;;;-0.58;100.00
19128;BME280;9696;53.686;10.094;2023-03-16T03:08:47;101781.44;;;-0.56;100.00
19128;BME280;9696;53.686;10.094;2023-03-16T03:11:17;101783.13;;;-0.55;100.00
19128;BME280;9696;53.686;10.094;2023-03-16T03:13:46;101779.63;;;-0.52;100.00
19128;BME280;9696;53.686;10.094;2023-03-16T03:16:21;101782.13;;;-0.49;100.00
19128;BME280;9696;53.686;10.094;2023-03-16T03:18:51;101796.63;;;-0.45;100.00
19128;BME280;9696;53.686;10.094;2023-03-16T03:21:21;101786.94;;;-0.35;100.00
19128;BME280;9696;53.686;10.094;2023-03-16T03:23:51;101793.03;;;-0.38;100.00
19128;BME280;9696;53.686;10.094;2023-03-16T03:26:21;101786.13;;;-0.37;100.00
19128;BME280;9696;53.686;10.094;2023-03-16T03:28:51;101790.38;;;-0.35;100.00
19128;BME280;9696;53.686;10.094;2023-03-16T03:31:22;101780.06;;;-0.35;100.00
19128;BME280;9696;53.686;10.094;2023-03-16T03:33:51;101786.94;;;-0.35;100.00
19128;BME280;9696;53.686;10.094;2023-03-16T03:36:22;101785.22;;;-0.35;100.00
19128;BME280;9696;53.686;10.094;2023-03-16T03:38:51;101780.91;;;-0.34;100.00
19128;BME280;9696;53.686;10.094;2023-03-16T03:41:21;101779.09;;;-0.31;100.00
19128;BME280;9696;53.686;10.094;2023-03-16T03:43:52;101785.94;;;-0.28;100.00
19128;BME280;9696;53.686;10.094;2023-03-16T03:46:23;101784.22;;;-0.29;100.00
19128;BME280;9696;53.686;10.094;2023-03-16T03:48:52;101784.25;;;-0.31;100.00
19128;BME280;9696;53.686;10.094;2023-03-16T03:51:21;101789.50;;;-0.35;100.00
19128;BME280;9696;53.686;10.094;2023-03-16T03:54:12;101788.63;;;-0.33;100.00
19128;BME280;9696;53.686;10.094;2023-03-16T03:57:08;101788.53;;;-0.30;100.00
19128;BME280;9696;53.686;10.094;2023-03-16T03:59:37;101791.88;;;-0.26;100.00
19128;BME280;9696;53.686;10.094;2023-03-16T04:02:30;101789.50;;;-0.34;100.00
19128;BME280;9696;53.686;10.094;2023-03-16T04:04:59;101780.00;;;-0.32;100.00
19128;BME280;9696;53.686;10.094;2023-03-16T04:07:30;101776.63;;;-0.35;100.00
19128;BME280;9696;53.686;10.094;2023-03-16T04:10:04;101778.44;;;-0.39;100.00
19128;BME280;9696;53.686;10.094;2023-03-16T04:12:37;101781.00;;;-0.39;100.00
19128;BME280;9696;53.686;10.094;2023-03-16T04:15:10;101785.41;;;-0.42;100.00
19128;BME280;9696;53.686;10.094;2023-03-16T04:17:50;101786.34;;;-0.47;100.00
19128;BME280;9696;53.686;10.094;2023-03-16T04:20:20;101778.59;;;-0.45;100.00
19128;BME280;9696;53.686;10.094;2023-03-16T04:22:51;101776.13;;;-0.50;100.00
19128;BME280;9696;53.686;10.094;2023-03-16T04:25:26;101780.31;;;-0.45;100.00
19128;BME280;9696;53.686;10.094;2023-03-16T04:27:58;101776.25;;;-0.54;100.00
19128;BME280;9696;53.686;10.094;2023-03-16T04:30:29;101770.97;;;-0.50;100.00
19128;BME280;9696;53.686;10.094;2023-03-16T04:33:26;101774.50;;;-0.54;100.00
19128;BME280;9696;53.686;10.094;2023-03-16T04:35:56;101771.06;;;-0.53;100.00
19128;BME280;9696;53.686;10.094;2023-03-16T04:38:26;101780.50;;;-0.52;100.00
19128;BME280;9696;53.686;10.094;2023-03-16T04:40:59;101777.91;;;-0.52;100.00
19128;BME280;9696;53.686;10.094;2023-03-16T04:43:33;101773.44;;;-0.45;100.00
19128;BME280;9696;53.686;10.094;2023-03-16T04:46:23;101772.38;;;-0.36;100.00
19128;BME280;9696;53.686;10.094;2023-03-16T04:48:55;101785.25;;;-0.36;100.00
19128;BME280;9696;53.686;10.094;2023-03-16T04:51:26;101778.25;;;-0.31;100.00
19128;BME280;9696;53.686;10.094;2023-03-16T04:54:17;101773.16;;;-0.34;100.00
19128;BME280;9696;53.686;10.094;2023-03-16T04:56:48;101768.88;;;-0.34;100.00
19128;BME280;9696;53.686;10.094;2023-03-16T04:59:37;101769.69;;;-0.32;100.00
19128;BME280;9696;53.686;10.094;2023-03-16T05:02:15;101766.06;;;-0.25;100.00
19128;BME280;9696;53.686;10.094;2023-03-16T05:04:48;101764.25;;;-0.21;100.00
19128;BME280;9696;53.686;10.094;2023-03-16T05:07:18;101768.38;;;-0.14;100.00
19128;BME280;9696;53.686;10.094;2023-03-16T05:09:52;101767.63;;;-0.19;100.00
19128;BME280;9696;53.686;10.094;2023-03-16T05:12:21;101768.28;;;-0.11;100.00
19128;BME280;9696;53.686;10.094;2023-03-16T05:14:55;101761.44;;;-0.12;100.00
19128;BME280;9696;53.686;10.094;2023-03-16T05:17:35;101760.53;;;-0.10;100.00
19128;BME280;9696;53.686;10.094;2023-03-16T05:20:08;101752.88;;;-0.13;100.00
19128;BME280;9696;53.686;10.094;2023-03-16T05:22:46;101758.72;;;-0.08;100.00
19128;BME280;9696;53.686;10.094;2023-03-16T05:25:24;101757.72;;;-0.02;100.00
19128;BME280;9696;53.686;10.094;2023-03-16T05:27:55;101752.47;;;0.03;100.00
19128;BME280;9696;53.686;10.094;2023-03-16T05:30:31;101752.34;;;0.07;100.00
19128;BME280;9696;53.686;10.094;2023-03-16T05:33:04;101762.59;;;0.09;100.00
19128;BME280;9696;53.686;10.094;2023-03-16T05:35:35;101766.97;;;0.07;100.00
19128;BME280;9696;53.686;10.094;2023-03-16T05:38:09;101769.88;;;-0.06;100.00
19128;BME280;9696;53.686;10.094;2023-03-16T05:40:40;101773.03;;;0.04;100.00
19128;BME280;9696;53.686;10.094;2023-03-16T05:43:29;101783.34;;;0.04;100.00
19128;BME280;9696;53.686;10.094;2023-03-16T05:45:59;101776.97;;;0.19;100.00
19128;BME280;9696;53.686;10.094;2023-03-16T05:48:28;101785.88;;;0.07;100.00
19128;BME280;9696;53.686;10.094;2023-03-16T05:51:00;101787.41;;;0.14;100.00
19128;BME280;9696;53.686;10.094;2023-03-16T05:53:32;101786.13;;;0.29;100.00
19128;BME280;9696;53.686;10.094;2023-03-16T05:56:12;101800.19;;;0.17;100.00
19128;BME280;9696;53.686;10.094;2023-03-16T05:58:44;101792.47;;;0.17;100.00
19128;BME280;9696;53.686;10.094;2023-03-16T06:01:14;101801.88;;;0.20;100.00
19128;BME280;9696;53.686;10.094;2023-03-16T06:03:43;101788.44;;;0.39;100.00
19128;BME280;9696;53.686;10.094;2023-03-16T06:06:21;101786.00;;;0.33;100.00
19128;BME280;9696;53.686;10.094;2023-03-16T06:08:57;101784.91;;;0.42;100.00
19128;BME280;9696;53.686;10.094;2023-03-16T06:11:27;101793.38;;;0.47;100.00
19128;BME280;9696;53.686;10.094;2023-03-16T06:13:56;101791.59;;;0.49;100.00
19128;BME280;9696;53.686;10.094;2023-03-16T06:16:26;101787.59;;;0.39;100.00
19128;BME280;9696;53.686;10.094;2023-03-16T06:18:55;101788.28;;;0.44;100.00
19128;BME280;9696;53.686;10.094;2023-03-16T06:21:29;101788.13;;;0.50;100.00
19128;BME280;9696;53.686;10.094;2023-03-16T06:24:05;101793.03;;;0.59;100.00
19128;BME280;9696;53.686;10.094;2023-03-16T06:26:36;101793.84;;;0.61;100.00
19128;BME280;9696;53.686;10.094;2023-03-16T06:29:08;101796.09;;;0.72;100.00
19128;BME280;9696;53.686;10.094;2023-03-16T06:31:39;101808.00;;;0.77;100.00
19128;BME280;9696;53.686;10.094;2023-03-16T06:34:08;101802.22;;;0.99;100.00
19128;BME280;9696;53.686;10.094;2023-03-16T06:36:40;101805.81;;;0.93;100.00
19128;BME280;9696;53.686;10.094;2023-03-16T06:39:12;101807.97;;;0.79;100.00
19128;BME280;9696;53.686;10.094;2023-03-16T06:41:46;101816.50;;;1.10;100.00
19128;BME280;9696;53.686;10.094;2023-03-16T06:44:16;101813.34;;;1.01;100.00
19128;BME280;9696;53.686;10.094;2023-03-16T06:47:03;101812.75;;;1.20;100.00
19128;BME280;9696;53.686;10.094;2023-03-16T06:49:33;101816.53;;;1.09;100.00
19128;BME280;9696;53.686;10.094;2023-03-16T06:52:07;101814.34;;;1.24;100.00
19128;BME280;9696;53.686;10.094;2023-03-16T06:54:37;101809.19;;;1.23;100.00
19128;BME280;9696;53.686;10.094;2023-03-16T06:57:07;101812.84;;;1.45;100.00
19128;BME280;9696;53.686;10.094;2023-03-16T06:59:36;101807.84;;;1.39;100.00
19128;BME280;9696;53.686;10.094;2023-03-16T07:02:09;101813.97;;;1.36;100.00
19128;BME280;9696;53.686;10.094;2023-03-16T07:04:40;101807.47;;;1.51;100.00
19128;BME280;9696;53.686;10.094;2023-03-16T07:07:11;101814.13;;;1.58;100.00
19128;BME280;9696;53.686;10.094;2023-03-16T07:09:40;101807.88;;;1.65;100.00
19128;BME280;9696;53.686;10.094;2023-03-16T07:12:10;101808.56;;;1.70;100.00
19128;BME280;9696;53.686;10.094;2023-03-16T07:14:39;101812.34;;;1.60;100.00
19128;BME280;9696;53.686;10.094;2023-03-16T07:17:11;101815.50;;;1.70;100.00
19128;BME280;9696;53.686;10.094;2023-03-16T07:19:40;101815.53;;;1.68;100.00
19128;BME280;9696;53.686;10.094;2023-03-16T07:22:11;101815.75;;;1.87;100.00
19128;BME280;9696;53.686;10.094;2023-03-16T07:24:41;101820.75;;;1.93;100.00
19128;BME280;9696;53.686;10.094;2023-03-16T07:27:11;101821.09;;;2.09;100.00
19128;BME280;9696;53.686;10.094;2023-03-16T07:29:41;101828.44;;;2.21;100.00
19128;BME280;9696;53.686;10.094;2023-03-16T07:32:11;101829.59;;;2.12;100.00
19128;BME280;9696;53.686;10.094;2023-03-16T07:34:40;101832.91;;;2.16;100.00
19128;BME280;9696;53.686;10.094;2023-03-16T07:37:11;101833.19;;;2.33;100.00
19128;BME280;9696;53.686;10.094;2023-03-16T07:39:41;101823.75;;;2.30;100.00
19128;BME280;9696;53.686;10.094;2023-03-16T07:42:16;101828.41;;;2.46;100.00
19128;BME280;9696;53.686;10.094;2023-03-16T07:45:05;101827.81;;;2.37;100.00
19128;BME280;9696;53.686;10.094;2023-03-16T07:47:35;101828.34;;;2.47;100.00
19128;BME280;9696;53.686;10.094;2023-03-16T07:50:12;101830.50;;;2.59;100.00
19128;BME280;9696;53.686;10.094;2023-03-16T07:52:45;101834.88;;;2.57;100.00
19128;BME280;9696;53.686;10.094;2023-03-16T07:55:15;101829.00;;;2.77;100.00
19128;BME280;9696;53.686;10.094;2023-03-16T07:57:45;101829.47;;;2.88;100.00
19128;BME280;9696;53.686;10.094;2023-03-16T08:00:19;101831.97;;;3.13;100.00
19128;BME280;9696;53.686;10.094;2023-03-16T08:02:50;101826.47;;;3.20;100.00
19128;BME280;9696;53.686;10.094;2023-03-16T08:05:20;101822.81;;;3.26;100.00
19128;BME280;9696;53.686;10.094;2023-03-16T08:08:00;101825.84;;;3.37;100.00
19128;BME280;9696;53.686;10.094;2023-03-16T08:10:31;101819.16;;;3.53;100.00
19128;BME280;9696;53.686;10.094;2023-03-16T08:13:10;101812.38;;;3.71;100.00
19128;BME280;9696;53.686;10.094;2023-03-16T08:15:45;101818.38;;;4.13;100.00
19128;BME280;9696;53.686;10.094;2023-03-16T08:18:25;101817.56;;;3.71;100.00
19128;BME280;9696;53.686;10.094;2023-03-16T08:20:54;101820.78;;;3.98;100.00
19128;BME280;9696;53.686;10.094;2023-03-16T08:23:25;101817.53;;;4.33;100.00
19128;BME280;9696;53.686;10.094;2023-03-16T08:25:57;101821.50;;;4.42;100.00
19128;BME280;9696;53.686;10.094;2023-03-16T08:28:26;101815.06;;;4.50;100.00
19128;BME280;9696;53.686;10.094;2023-03-16T08:30:58;101814.94;;;4.72;100.00
19128;BME280;9696;53.686;10.094;2023-03-16T08:33:37;101806.59;;;4.84;100.00
19128;BME280;9696;53.686;10.094;2023-03-16T08:36:09;101819.78;;;4.61;100.00
19128;BME280;9696;53.686;10.094;2023-03-16T08:38:42;101819.22;;;4.73;100.00
19128;BME280;9696;53.686;10.094;2023-03-16T08:41:27;101817.75;;;4.86;100.00
19128;BME280;9696;53.686;10.094;2023-03-16T08:44:01;101809.63;;;5.12;100.00
19128;BME280;9696;53.686;10.094;2023-03-16T08:46:30;101813.09;;;5.30;100.00
19128;BME280;9696;53.686;10.094;2023-03-16T08:49:00;101829.09;;;5.58;100.00
19128;BME280;9696;53.686;10.094;2023-03-16T08:51:30;101818.41;;;5.64;100.00
19128;BME280;9696;53.686;10.094;2023-03-16T08:54:01;101810.00;;;5.94;100.00
19128;BME280;9696;53.686;10.094;2023-03-16T08:56:30;101813.53;;;6.27;100.00
19128;BME280;9696;53.686;10.094;2023-03-16T08:58:59;101814.72;;;6.37;100.00
19128;BME280;9696;53.686;10.094;2023-03-16T09:01:28;101810.56;;;6.83;100.00
19128;BME280;9696;53.686;10.094;2023-03-16T09:03:58;101807.84;;;6.69;100.00
19128;BME280;9696;53.686;10.094;2023-03-16T09:06:29;101804.25;;;6.39;100.00
19128;BME280;9696;53.686;10.094;2023-03-16T09:09:00;101793.91;;;6.53;100.00
19128;BME280;9696;53.686;10.094;2023-03-16T09:11:29;101802.22;;;6.77;100.00
19128;BME280;9696;53.686;10.094;2023-03-16T09:14:00;101792.41;;;6.97;100.00
19128;BME280;9696;53.686;10.094;2023-03-16T09:16:29;101799.88;;;7.19;100.00
19128;BME280;9696;53.686;10.094;2023-03-16T09:18:58;101802.56;;;6.71;100.00
19128;BME280;9696;53.686;10.094;2023-03-16T09:21:27;101804.19;;;6.56;100.00
19128;BME280;9696;53.686;10.094;2023-03-16T09:23:57;101806.19;;;6.99;100.00
19128;BME280;9696;53.686;10.094;2023-03-16T09:26:28;101795.59;;;7.34;100.00
19128;BME280;9696;53.686;10.094;2023-03-16T09:28:57;101795.13;;;7.57;100.00
19128;BME280;9696;53.686;10.094;2023-03-16T09:31:26;101795.50;;;7.04;100.00
19128;BME280;9696;53.686;10.094;2023-03-16T09:33:55;101780.28;;;7.12;100.00
19128;BME280;9696;53.686;10.094;2023-03-16T09:36:24;101792.22;;;7.32;100.00
19128;BME280;9696;53.686;10.094;2023-03-16T09:38:54;101785.31;;;7.76;100.00
19128;BME280;9696;53.686;10.094;2023-03-16T09:41:37;101786.22;;;7.75;100.00
19128;BME280;9696;53.686;10.094;2023-03-16T09:44:17;101791.78;;;7.85;100.00
19128;BME280;9696;53.686;10.094;2023-03-16T09:46:51;101775.53;;;8.24;100.00
19128;BME280;9696;53.686;10.094;2023-03-16T09:49:25;101773.06;;;8.06;100.00
19128;BME280;9696;53.686;10.094;2023-03-16T09:51:59;101775.84;;;7.89;100.00
19128;BME280;9696;53.686;10.094;2023-03-16T09:54:38;101770.22;;;8.25;100.00
19128;BME280;9696;53.686;10.094;2023-03-16T09:57:17;101759.66;;;7.83;100.00
19128;BME280;9696;53.686;10.094;2023-03-16T09:59:52;101771.06;;;7.82;100.00
19128;BME280;9696;53.686;10.094;2023-03-16T10:02:44;101769.78;;;7.89;100.00
19128;BME280;9696;53.686;10.094;2023-03-16T10:05:16;101773.75;;;7.80;100.00
19128;BME280;9696;53.686;10.094;2023-03-16T10:07:54;101764.22;;;8.23;100.00
19128;BME280;9696;53.686;10.094;2023-03-16T10:10:38;101748.09;;;8.31;97.84
19128;BME280;9696;53.686;10.094;2023-03-16T10:13:27;101771.66;;;8.01;99.96
19128;BME280;9696;53.686;10.094;2023-03-16T10:16:02;101758.47;;;7.88;98.03
19128;BME280;9696;53.686;10.094;2023-03-16T10:18:38;101755.72;;;8.05;97.31
19128;BME280;9696;53.686;10.094;2023-03-16T10:21:14;101759.72;;;8.11;94.08
19128;BME280;9696;53.686;10.094;2023-03-16T10:23:45;101745.22;;;8.35;93.56
19128;BME280;9696;53.686;10.094;2023-03-16T10:26:19;101746.00;;;8.22;96.20
19128;BME280;9696;53.686;10.094;2023-03-16T10:28:50;101752.72;;;8.12;94.81
19128;BME280;9696;53.686;10.094;2023-03-16T10:31:22;101756.38;;;8.09;97.41
19128;BME280;9696;53.686;10.094;2023-03-16T10:33:53;101752.31;;;8.33;99.48
19128;BME280;9696;53.686;10.094;2023-03-16T10:36:29;101732.00;;;8.65;99.03
19128;BME280;9696;53.686;10.094;2023-03-16T10:39:02;101751.91;;;8.53;95.78
19128;BME280;9696;53.686;10.094;2023-03-16T10:41:34;101751.28;;;8.50;99.32
19128;BME280;9696;53.686;10.094;2023-03-16T10:44:10;101733.97;;;8.19;98.59
19128;BME280;9696;53.686;10.094;2023-03-16T10:46:41;101743.72;;;8.45;96.73
19128;BME280;9696;53.686;10.094;2023-03-16T10:49:23;101738.75;;;8.55;97.52
19128;BME280;9696;53.686;10.094;2023-03-16T10:51:55;101733.97;;;8.76;93.87
19128;BME280;9696;53.686;10.094;2023-03-16T10:54:29;101734.56;;;8.52;93.32
19128;BME280;9696;53.686;10.094;2023-03-16T10:57:12;101724.38;;;9.30;92.25
19128;BME280;9696;53.686;10.094;2023-03-16T10:59:47;101729.53;;;9.05;90.29
19128;BME280;9696;53.686;10.094;2023-03-16T11:02:19;101723.50;;;8.76;89.83
19128;BME280;9696;53.686;10.094;2023-03-16T11:04:50;101717.56;;;8.60;79.68
19128;BME280;9696;53.686;10.094;2023-03-16T11:07:22;101722.22;;;8.55;60.98
19128;BME280;9696;53.686;10.094;2023-03-16T11:09:52;101724.59;;;8.45;58.93
19128;BME280;9696;53.686;10.094;2023-03-16T11:12:25;101719.91;;;8.64;53.59
19128;BME280;9696;53.686;10.094;2023-03-16T11:15:02;101716.22;;;8.81;57.37
19128;BME280;9696;53.686;10.094;2023-03-16T11:17:44;101710.56;;;8.60;51.11
19128;BME280;9696;53.686;10.094;2023-03-16T11:20:16;101708.63;;;8.90;49.70
19128;BME280;9696;53.686;10.094;2023-03-16T11:22:46;101701.88;;;8.60;44.46
19128;BME280;9696;53.686;10.094;2023-03-16T11:25:20;101708.91;;;8.86;41.94
19128;BME280;9696;53.686;10.094;2023-03-16T11:27:58;101696.81;;;8.97;41.94
19128;BME280;9696;53.686;10.094;2023-03-16T11:30:37;101696.38;;;9.18;41.60
19128;BME280;9696;53.686;10.094;2023-03-16T11:33:09;101682.22;;;9.72;40.36
19128;BME280;9696;53.686;10.094;2023-03-16T11:35:45;101689.41;;;9.31;42.08
19128;BME280;9696;53.686;10.094;2023-03-16T11:38:29;101678.16;;;9.93;42.15
19128;BME280;9696;53.686;10.094;2023-03-16T11:41:03;101680.94;;;9.53;41.76
19128;BME280;9696;53.686;10.094;2023-03-16T11:43:48;101676.34;;;9.43;42.99
19128;BME280;9696;53.686;10.094;2023-03-16T11:46:23;101683.22;;;9.32;42.13
19128;BME280;9696;53.686;10.094;2023-03-16T11:49:10;101662.22;;;9.84;39.88
19128;BME280;9696;53.686;10.094;2023-03-16T11:51:47;101666.53;;;10.23;41.26
19128;BME280;9696;53.686;10.094;2023-03-16T11:54:36;101667.44;;;9.97;42.50
19128;BME280;9696;53.686;10.094;2023-03-16T11:57:19;101650.69;;;9.61;42.88
19128;BME280;9696;53.686;10.094;2023-03-16T12:00:04;101641.78;;;10.27;41.63
19128;BME280;9696;53.686;10.094;2023-03-16T12:02:48;101645.41;;;10.73;40.24
19128;BME280;9696;53.686;10.094;2023-03-16T12:05:40;101640.53;;;9.82;36.84
19128;BME280;9696;53.686;10.094;2023-03-16T12:08:24;101640.19;;;10.24;38.32
19128;BME280;9696;53.686;10.094;2023-03-16T12:11:02;101625.88;;;10.41;38.29
19128;BME280;9696;53.686;10.094;2023-03-16T12:13:50;101620.47;;;10.55;37.96
19128;BME280;9696;53.686;10.094;2023-03-16T12:16:27;101622.63;;;10.50;37.06
19128;BME280;9696;53.686;10.094;2023-03-16T12:19:18;101615.84;;;10.10;35.10
19128;BME280;9696;53.686;10.094;2023-03-16T12:22:00;101617.41;;;10.37;34.66
19128;BME280;9696;53.686;10.094;2023-03-16T12:24:36;101613.25;;;10.22;36.04
19128;BME280;9696;53.686;10.094;2023-03-16T12:27:11;101615.94;;;10.33;35.89
19128;BME280;9696;53.686;10.094;2023-03-16T12:29:52;101614.47;;;10.29;36.52
19128;BME280;9696;53.686;10.094;2023-03-16T12:32:34;101614.81;;;10.25;36.84
19128;BME280;9696;53.686;10.094;2023-03-16T12:35:20;101618.28;;;10.25;38.84
19128;BME280;9696;53.686;10.094;2023-03-16T12:38:06;101600.34;;;10.19;37.03
19128;BME280;9696;53.686;10.094;2023-03-16T12:40:45;101606.59;;;10.66;35.92
19128;BME280;9696;53.686;10.094;2023-03-16T12:43:26;101598.09;;;10.38;36.88
19128;BME280;9696;53.686;10.094;2023-03-16T12:46:00;101589.97;;;10.18;35.55
19128;BME280;9696;53.686;10.094;2023-03-16T12:48:35;101588.03;;;9.83;35.59
19128;BME280;9696;53.686;10.094;2023-03-16T12:51:07;101587.78;;;10.72;38.09
19128;BME280;9696;53.686;10.094;2023-03-16T12:53:44;101582.94;;;10.18;37.42
19128;BME280;9696;53.686;10.094;2023-03-16T12:56:16;101570.22;;;10.25;38.64
19128;BME280;9696;53.686;10.094;2023-03-16T12:58:48;101570.25;;;10.00;37.67
19128;BME280;9696;53.686;10.094;2023-03-16T13:01:23;101560.66;;;9.87;38.40
19128;BME280;9696;53.686;10.094;2023-03-16T13:04:00;101557.47;;;10.44;37.87
19128;BME280;9696;53.686;10.094;2023-03-16T13:06:34;101544.13;;;11.06;36.54
19128;BME280;9696;53.686;10.094;2023-03-16T13:09:05;101544.06;;;10.60;36.76
19128;BME280;9696;53.686;10.094;2023-03-16T13:11:44;101570.41;;;9.85;37.25
19128;BME280;9696;53.686;10.094;2023-03-16T13:14:35;101554.00;;;10.07;37.60
19128;BME280;9696;53.686;10.094;2023-03-16T13:17:22;101547.25;;;10.28;36.10
19128;BME280;9696;53.686;10.094;2023-03-16T13:20:05;101545.22;;;10.32;37.82
19128;BME280;9696;53.686;10.094;2023-03-16T13:22:46;101540.06;;;10.07;36.57